Latest Coastal Weather Observations for Tasman Island

IDT60701

Issued at 9:41 pm EST Saturday 28 May 2016 (issued every 10 minutes, with the page automatically refreshed every 10 minutes)

About coastal observations | Map of coastal stations | Coastal observations for TAS | Marine services | Other Formats
Station Details ID: 094155 Name: TASMAN ISLAND Lat: -43.24 Lon: 148.00 Height: 240.0 m
Data from the previous 72 hours. | See also: Recent months at Tasman Island
Date/Time
EST
Temp

°C
Wind Pressure Rain
since 9am
mm
Weather Cloud Vis
km
Sea
Height
m
Swell
Dir
 
Speed
knots
Gust
knots
hPa Trend Height
m
Period
s
Dir
28/09:30pm 8.6 NW 3 8 1009.0 - 2.6 - - - - - - -
28/09:00pm 8.6 ENE 3 7 1009.0 - 2.6 Rain - - - - - -
28/08:30pm 8.5 WSW 6 13 1008.8 - 2.2 - - - - - - -
28/08:00pm 8.8 W 4 9 1008.6 - 2.2 - - - - - - -
28/07:30pm 8.0 SW 7 15 1008.6 - 1.8 - - - - - - -
28/07:00pm 7.9 WSW 7 13 1008.5 - 1.6 - - - - - - -
28/06:30pm 8.4 WSW 5 10 1008.2 - 1.0 - - - - - - -
28/06:00pm 8.7 SSW 6 14 1007.9 - 1.0 Recent precip. - - - - - -
28/05:30pm 8.6 SW 9 16 1007.7 - 1.0 - - - - - - -
28/05:00pm 8.2 WSW 7 18 1007.5 - 0.4 - - - - - - -
28/04:30pm 9.1 SSW 5 13 1007.2 - 0.0 - - - - - - -
28/04:00pm 9.5 SSW 4 11 1007.1 - 0.0 - - - - - - -
28/03:30pm 9.4 SW 6 12 1007.0 - 0.0 - - - - - - -
28/03:00pm 10.2 SW 5 10 1006.9 - 0.0 - - - - - - -
28/02:30pm 10.3 WSW 6 11 1006.5 - 0.0 - - - - - - -
28/02:00pm 10.4 WSW 6 14 1006.4 - 0.0 - - - - - - -
28/01:30pm 10.1 SSW 2 8 1006.3 - 0.0 - - - - - - -
28/01:00pm 9.9 W 5 11 1006.2 - 0.0 - - - - - - -
28/12:30pm 9.9 WSW 3 14 1006.5 - 0.0 - - - - - - -
28/12:00pm 9.7 W 7 15 1006.6 - 0.0 - - - - - - -
28/11:30am 10.0 W 5 11 1006.8 - 0.0 - - - - - - -
28/11:00am 9.9 WNW 3 8 1007.0 - 0.0 - - - - - - -
28/10:30am 9.9 WSW 3 8 1007.0 - 0.0 - - - - - - -
28/10:00am 9.6 SSW 2 7 1006.9 - 0.0 - - - - - - -
28/09:30am 8.6 W 4 11 1006.9 - 0.0 - - - - - - -
28/09:00am 8.3 W 4 11 1007.0 - 0.6 - - - - - - -
28/08:30am 8.0 WNW 3 10 1007.1 - 0.6 - - - - - - -
28/08:00am 7.4 WNW 3 8 1007.0 - 0.6 - - - - - - -
28/07:30am 7.3 WNW 3 9 1006.8 - 0.6 - - - - - - -
28/07:00am 7.2 WNW 3 7 1006.6 - 0.6 - - - - - - -
28/06:30am 7.3 SW 3 11 1006.5 - 0.6 - - - - - - -
28/06:00am 7.7 SW 3 15 1006.3 - 0.6 - - - - - - -
28/05:30am 7.8 NW 3 13 1006.2 - 0.6 - - - - - - -
28/05:00am 8.1 NW 4 14 1006.1 - 0.6 - - - - - - -
28/04:30am 8.2 WSW 4 13 1006.2 - 0.6 - - - - - - -
28/04:00am 8.3 W 5 17 1006.2 - 0.6 - - - - - - -
28/03:30am 8.3 S 5 15 1006.1 - 0.6 - - - - - - -
28/03:00am 8.4 WSW 3 11 1006.2 - 0.6 - - - - - - -
28/02:30am 8.5 WSW 6 15 1006.3 - 0.6 - - - - - - -
28/02:00am 8.5 W 5 11 1006.4 - 0.6 - - - - - - -
28/01:30am 8.6 SW 5 13 1006.2 - 0.6 - - - - - - -
28/01:00am 8.7 WSW 7 19 1006.2 - 0.6 - - - - - - -
28/12:30am 8.9 WSW 6 15 1006.3 - 0.6 - - - - - - -
28/12:00am 8.9 WSW 7 14 1006.4 - 0.6 - - - - - - -
 
Date/Time
EST
Temp

°C
Wind Pressure Rain
since 9am
mm
Weather Cloud Vis
km
Sea
Height
m
Swell
Dir
 
Speed
knots
Gust
knots
hPa Trend Height
m
Period
s
Dir
27/11:30pm 9.0 SW 6 18 1006.5 - 0.6 - - - - - - -
27/11:00pm 9.1 SW 8 18 1006.5 - 0.6 - - - - - - -
27/10:30pm 9.4 SW 9 18 1006.8 - 0.6 - - - - - - -
27/10:00pm 9.4 SSW 9 18 1006.8 - 0.6 - - - - - - -
27/09:30pm 9.4 SW 12 19 1006.8 - 0.6 - - - - - - -
27/09:00pm 9.4 SW 15 21 1006.8 - 0.6 - - - - - - -
27/08:30pm 9.4 SW 13 24 1006.6 - 0.6 - - - - - - -
27/08:00pm 9.3 SSW 12 19 1006.5 - 0.6 - - - - - - -
27/07:30pm 9.4 SSW 11 22 1006.2 - 0.6 - - - - - - -
27/07:00pm 9.2 SW 13 23 1006.1 - 0.6 - - - - - - -
27/06:30pm 9.4 SW 13 21 1006.0 - 0.6 - - - - - - -
27/06:00pm 9.3 SSW 12 21 1005.8 - 0.6 Recent precip. - - - - - -
27/05:30pm 9.4 SSW 13 20 1005.5 - 0.4 - - - - - - -
27/05:00pm 9.4 SSW 12 21 1005.3 - 0.4 - - - - - - -
27/04:30pm 9.6 SSW 13 20 1005.0 - 0.4 - - - - - - -
27/04:00pm 9.5 SSW 14 20 1004.7 - 0.4 - - - - - - -
27/03:30pm 9.6 SSW 14 25 1004.4 - 0.4 - - - - - - -
27/03:00pm 9.5 SSW 14 20 1004.2 - 0.4 - - - - - - -
27/02:30pm 9.6 SSW 15 22 1003.9 - 0.4 - - - - - - -
27/02:00pm 9.7 SSW 15 22 1003.9 - 0.4 - - - - - - -
27/01:30pm 9.8 SSW 16 22 1003.8 - 0.4 - - - - - - -
27/01:00pm 9.8 SSW 12 20 1003.8 - 0.4 - - - - - - -
27/12:30pm 9.6 SSW 12 21 1003.8 - 0.4 - - - - - - -
27/12:00pm 9.5 SSW 10 15 1003.8 - 0.4 - - - - - - -
27/11:30am 9.3 SSW 11 17 1004.0 - 0.4 - - - - - - -
27/11:00am 9.1 SSW 13 17 1004.0 - 0.4 - - - - - - -
27/10:30am 8.8 SSW 15 22 1004.1 - 0.4 - - - - - - -
27/10:00am 9.1 SSW 11 17 1003.9 - 0.4 - - - - - - -
27/09:30am 9.5 SSW 12 18 1003.8 - 0.0 - - - - - - -
27/09:00am 9.2 SSW 12 18 1003.6 - 6.4 Recent precip. - - - - - -
27/08:30am 8.7 SSW 11 17 1003.6 - 6.4 - - - - - - -
27/08:00am 8.5 SSW 11 17 1003.4 - 6.2 - - - - - - -
27/07:30am 8.7 SSW 10 16 1003.1 - 6.0 - - - - - - -
27/07:00am 8.2 SSW 10 19 1002.9 - 6.0 - - - - - - -
27/06:30am 8.2 S 8 15 1002.8 - 6.0 - - - - - - -
27/06:00am 8.1 SSE 9 15 1002.8 - 5.6 Recent precip. - - - - - -
27/05:30am 8.3 S 11 18 1002.7 - 5.4 - - - - - - -
27/05:00am 8.2 S 10 16 1002.5 - 5.2 - - - - - - -
27/04:30am 8.2 S 11 18 1002.4 - 4.8 - - - - - - -
27/04:00am 7.9 S 10 17 1002.3 - 4.8 - - - - - - -
27/03:30am 7.9 S 9 16 1002.3 - 4.4 - - - - - - -
27/03:00am 8.0 S 9 15 1002.3 - 4.2 Recent precip. - - - - - -
27/02:30am 8.0 S 9 18 1002.3 - 4.0 - - - - - - -
27/02:00am 7.8 S 8 12 1002.2 - 4.0 - - - - - - -
27/01:30am 7.7 S 8 13 1002.2 - 3.6 - - - - - - -
27/01:00am 7.6 S 11 20 1002.1 - 3.0 - - - - - - -
27/12:30am 7.7 S 12 19 1002.1 - 2.2 - - - - - - -
27/12:00am 7.8 S 11 21 1002.2 - 1.4 Rain - - - - - -
 
Date/Time
EST
Temp

°C
Wind Pressure Rain
since 9am
mm
Weather Cloud Vis
km
Sea
Height
m
Swell
Dir
 
Speed
knots
Gust
knots
hPa Trend Height
m
Period
s
Dir
26/11:30pm 7.6 SSW 14 21 1002.3 - 0.8 - - - - - - -
26/11:00pm 8.0 SSW 15 24 1002.2 - 0.2 - - - - - - -
26/10:37pm 9.2 SW 15 26 1002.2 - 0.0 - - - - - - -
26/10:30pm 9.6 SSW 14 24 1002.2 - 0.0 - - - - - - -
26/10:00pm 9.9 SSW 11 22 1002.3 - 0.0 - - - - - - -
26/09:30pm 10.1 SSW 13 20 1002.3 - 0.0 - - - - - - -
26/09:00pm 10.2 SSW 15 22 1002.1 - 0.0 - - - - - - -
26/08:30pm 10.2 SSW 14 21 1002.0 - 0.0 - - - - - - -
26/08:00pm 10.1 SSW 14 20 1002.1 - 0.0 - - - - - - -
26/07:30pm 10.1 SSW 11 17 1002.1 - 0.0 - - - - - - -
26/07:00pm 10.2 SSW 12 19 1002.1 - 0.0 - - - - - - -
26/06:30pm 10.1 SSW 12 20 1001.8 - 0.0 - - - - - - -
26/06:00pm 10.2 SSW 13 20 1001.7 - 0.0 - - - - - - -
26/05:30pm 10.0 SSW 13 18 1001.5 - 0.0 - - - - - - -
26/05:00pm 10.1 SSW 15 21 1001.3 - 0.0 - - - - - - -
26/04:30pm 10.1 SSW 14 21 1001.0 - 0.0 - - - - - - -
26/04:00pm 10.1 SSW 12 19 1000.9 - 0.0 - - - - - - -
26/03:30pm 10.2 SSW 13 20 1001.0 - 0.0 - - - - - - -
26/03:00pm 10.2 SSW 13 21 1001.0 - 0.0 - - - - - - -
26/02:30pm 10.2 SSW 14 21 1000.9 - 0.0 - - - - - - -
26/02:00pm 10.4 SSW 12 19 1001.0 - 0.0 - - - - - - -
26/01:30pm 11.0 SW 15 21 1001.0 - 0.0 - - - - - - -
26/01:00pm 10.3 SSW 12 17 1001.1 - 0.0 - - - - - - -
26/12:30pm 10.8 SW 14 21 1001.1 - 0.0 - - - - - - -
26/12:00pm 10.9 SW 10 21 1001.2 - 0.0 - - - - - - -
26/11:30am 11.1 SW 9 19 1001.5 - 0.0 - - - - - - -
26/11:00am 11.3 SW 8 17 1001.8 - 0.0 - - - - - - -
26/10:30am 10.9 SW 8 17 1002.1 - 0.0 - - - - - - -
26/10:00am 10.8 SW 8 19 1002.4 - 0.0 - - - - - - -
26/09:30am 10.6 SW 9 25 1002.3 - 0.0 - - - - - - -
26/09:00am 10.3 SSW 6 14 1002.3 - 1.2 - - - - - - -
26/08:30am 10.5 SW 10 18 1002.2 - 1.2 - - - - - - -
26/08:00am 10.4 SW 13 21 1002.2 - 1.2 - - - - - - -
26/07:30am 10.6 SSW 7 17 1002.1 - 1.2 - - - - - - -
26/07:00am 10.6 SW 7 16 1002.0 - 1.2 - - - - - - -
26/06:30am 10.6 SW 5 11 1001.8 - 1.2 - - - - - - -
26/06:00am 10.5 ENE 4 12 1001.6 - 1.2 - - - - - - -
26/05:30am 10.7 SW 3 9 1001.7 - 1.2 - - - - - - -
26/05:00am 10.9 W 5 12 1001.8 - 1.2 - - - - - - -
26/04:30am 11.0 WNW 7 11 1001.6 - 1.2 - - - - - - -
26/04:00am 10.9 NW 9 12 1001.5 - 1.2 - - - - - - -
26/03:30am 11.2 NW 8 13 1001.6 - 1.2 - - - - - - -
26/03:00am 10.8 N 8 13 1001.5 - 1.2 - - - - - - -
26/02:30am 10.6 N 9 14 1001.5 - 1.2 - - - - - - -
26/02:00am 10.6 N 11 16 1001.7 - 1.2 - - - - - - -
26/01:30am 10.6 N 12 19 1001.9 - 1.0 - - - - - - -
26/01:00am 10.8 N 12 19 1002.0 - 0.4 - - - - - - -
26/12:30am 10.7 N 12 20 1002.2 - 0.4 - - - - - - -
26/12:00am 10.5 N 16 23 1002.3 - 0.4 Recent precip. - - - - - -
 
Date/Time
EST
Temp

°C
Wind Pressure Rain
since 9am
mm
Weather Cloud Vis
km
Sea
Height
m
Swell
Dir
 
Speed
knots
Gust
knots
hPa Trend Height
m
Period
s
Dir
25/11:30pm 10.3 N 18 25 1002.8 - 0.4 - - - - - - -
25/11:23pm 10.3 N 15 25 1002.8 - 0.2 - - - - - - -
25/11:00pm 10.5 N 15 21 1003.0 - 0.2 - - - - - - -
25/10:30pm 11.0 N 16 24 1002.8 - 0.0 - - - - - - -
25/10:00pm 10.7 N 13 21 1003.0 - 0.0 - - - - - - -

Other Formats:

Comma delimited format used in spreadsheet applications
http://www.bom.gov.au/fwo/IDT60701/IDT60701.95986.axf

JavaScript Object Notation format (JSON) in row-major order
http://www.bom.gov.au/fwo/IDT60701/IDT60701.95986.json